sensor_id;sensor_type;location;lat;lon;timestamp;P1;durP1;ratioP1;P2;durP2;ratioP2
53207;SDS011;39093;52.788;6.940;2024-02-16T00:00:09;11.68;;;4.20;;
53207;SDS011;39093;52.788;6.940;2024-02-16T00:02:40;7.80;;;4.80;;
53207;SDS011;39093;52.788;6.940;2024-02-16T00:05:09;7.47;;;4.22;;
53207;SDS011;39093;52.788;6.940;2024-02-16T00:07:38;9.45;;;4.32;;
53207;SDS011;39093;52.788;6.940;2024-02-16T00:10:06;7.38;;;3.78;;
53207;SDS011;39093;52.788;6.940;2024-02-16T00:12:34;6.78;;;4.03;;
53207;SDS011;39093;52.788;6.940;2024-02-16T00:15:02;8.02;;;4.00;;
53207;SDS011;39093;52.788;6.940;2024-02-16T00:17:29;9.73;;;4.22;;
53207;SDS011;39093;52.788;6.940;2024-02-16T00:19:56;11.15;;;4.22;;
53207;SDS011;39093;52.788;6.940;2024-02-16T00:22:23;14.35;;;4.90;;
53207;SDS011;39093;52.788;6.940;2024-02-16T00:24:51;12.95;;;4.75;;
53207;SDS011;39093;52.788;6.940;2024-02-16T00:27:18;14.05;;;4.53;;
53207;SDS011;39093;52.788;6.940;2024-02-16T00:29:45;9.00;;;3.90;;
53207;SDS011;39093;52.788;6.940;2024-02-16T00:32:14;8.15;;;4.05;;
53207;SDS011;39093;52.788;6.940;2024-02-16T00:34:41;16.08;;;5.00;;
53207;SDS011;39093;52.788;6.940;2024-02-16T00:37:09;11.63;;;4.38;;
53207;SDS011;39093;52.788;6.940;2024-02-16T00:39:38;8.93;;;3.80;;
53207;SDS011;39093;52.788;6.940;2024-02-16T00:42:08;8.77;;;4.55;;
53207;SDS011;39093;52.788;6.940;2024-02-16T00:44:36;6.35;;;3.38;;
53207;SDS011;39093;52.788;6.940;2024-02-16T00:47:03;9.82;;;3.63;;
53207;SDS011;39093;52.788;6.940;2024-02-16T00:49:32;6.95;;;3.58;;
53207;SDS011;39093;52.788;6.940;2024-02-16T00:51:59;7.07;;;3.78;;
53207;SDS011;39093;52.788;6.940;2024-02-16T00:54:28;14.27;;;3.65;;
53207;SDS011;39093;52.788;6.940;2024-02-16T00:56:55;9.52;;;3.53;;
53207;SDS011;39093;52.788;6.940;2024-02-16T00:59:21;10.02;;;3.53;;
53207;SDS011;39093;52.788;6.940;2024-02-16T01:01:48;6.88;;;3.58;;
53207;SDS011;39093;52.788;6.940;2024-02-16T01:04:15;8.73;;;3.85;;
53207;SDS011;39093;52.788;6.940;2024-02-16T01:06:42;7.10;;;3.47;;
53207;SDS011;39093;52.788;6.940;2024-02-16T01:09:09;7.88;;;3.78;;
53207;SDS011;39093;52.788;6.940;2024-02-16T01:11:42;7.32;;;3.15;;
53207;SDS011;39093;52.788;6.940;2024-02-16T01:14:09;7.03;;;3.28;;
53207;SDS011;39093;52.788;6.940;2024-02-16T01:16:36;7.68;;;3.75;;
53207;SDS011;39093;52.788;6.940;2024-02-16T01:19:03;10.35;;;3.70;;
53207;SDS011;39093;52.788;6.940;2024-02-16T01:21:33;7.88;;;3.35;;
53207;SDS011;39093;52.788;6.940;2024-02-16T01:24:00;9.18;;;3.50;;
53207;SDS011;39093;52.788;6.940;2024-02-16T01:26:27;6.78;;;3.22;;
53207;SDS011;39093;52.788;6.940;2024-02-16T01:28:54;7.35;;;4.03;;
53207;SDS011;39093;52.788;6.940;2024-02-16T01:31:22;9.57;;;3.53;;
53207;SDS011;39093;52.788;6.940;2024-02-16T01:33:48;10.35;;;3.53;;
53207;SDS011;39093;52.788;6.940;2024-02-16T01:36:15;5.18;;;3.05;;
53207;SDS011;39093;52.788;6.940;2024-02-16T01:38:42;5.85;;;3.33;;
53207;SDS011;39093;52.788;6.940;2024-02-16T01:41:09;7.82;;;3.38;;
53207;SDS011;39093;52.788;6.940;2024-02-16T01:43:37;5.70;;;3.35;;
53207;SDS011;39093;52.788;6.940;2024-02-16T01:46:04;7.07;;;3.38;;
53207;SDS011;39093;52.788;6.940;2024-02-16T01:48:31;7.10;;;3.40;;
53207;SDS011;39093;52.788;6.940;2024-02-16T01:50:59;7.47;;;3.15;;
53207;SDS011;39093;52.788;6.940;2024-02-16T01:53:28;15.32;;;4.07;;
53207;SDS011;39093;52.788;6.940;2024-02-16T01:55:55;7.15;;;3.08;;
53207;SDS011;39093;52.788;6.940;2024-02-16T01:58:23;6.47;;;3.58;;
53207;SDS011;39093;52.788;6.940;2024-02-16T02:00:49;7.80;;;3.53;;
53207;SDS011;39093;52.788;6.940;2024-02-16T02:03:16;8.05;;;3.65;;
53207;SDS011;39093;52.788;6.940;2024-02-16T02:05:45;9.15;;;3.45;;
53207;SDS011;39093;52.788;6.940;2024-02-16T02:08:12;8.23;;;3.88;;
53207;SDS011;39093;52.788;6.940;2024-02-16T02:10:40;7.88;;;3.17;;
53207;SDS011;39093;52.788;6.940;2024-02-16T02:13:08;11.80;;;4.00;;
53207;SDS011;39093;52.788;6.940;2024-02-16T02:15:35;5.95;;;3.50;;
53207;SDS011;39093;52.788;6.940;2024-02-16T02:18:04;9.35;;;3.85;;
53207;SDS011;39093;52.788;6.940;2024-02-16T02:20:32;8.90;;;3.35;;
53207;SDS011;39093;52.788;6.940;2024-02-16T02:23:00;7.47;;;3.80;;
53207;SDS011;39093;52.788;6.940;2024-02-16T02:25:27;6.18;;;2.95;;
53207;SDS011;39093;52.788;6.940;2024-02-16T02:27:55;7.90;;;3.38;;
53207;SDS011;39093;52.788;6.940;2024-02-16T02:30:22;6.72;;;3.25;;
53207;SDS011;39093;52.788;6.940;2024-02-16T02:32:49;11.05;;;3.72;;
53207;SDS011;39093;52.788;6.940;2024-02-16T02:35:17;8.10;;;2.92;;
53207;SDS011;39093;52.788;6.940;2024-02-16T02:37:44;7.28;;;3.22;;
53207;SDS011;39093;52.788;6.940;2024-02-16T02:40:12;6.57;;;3.53;;
53207;SDS011;39093;52.788;6.940;2024-02-16T02:42:39;6.40;;;3.15;;
53207;SDS011;39093;52.788;6.940;2024-02-16T02:45:06;6.68;;;3.38;;
53207;SDS011;39093;52.788;6.940;2024-02-16T02:47:34;11.50;;;3.83;;
53207;SDS011;39093;52.788;6.940;2024-02-16T02:50:01;6.85;;;3.25;;
53207;SDS011;39093;52.788;6.940;2024-02-16T02:52:28;8.90;;;3.72;;
53207;SDS011;39093;52.788;6.940;2024-02-16T02:54:55;6.95;;;3.80;;
53207;SDS011;39093;52.788;6.940;2024-02-16T02:57:22;11.20;;;4.03;;
53207;SDS011;39093;52.788;6.940;2024-02-16T02:59:49;5.80;;;3.33;;
53207;SDS011;39093;52.788;6.940;2024-02-16T03:02:16;9.77;;;3.75;;
53207;SDS011;39093;52.788;6.940;2024-02-16T03:04:43;8.77;;;3.58;;
53207;SDS011;39093;52.788;6.940;2024-02-16T03:07:10;6.72;;;3.38;;
53207;SDS011;39093;52.788;6.940;2024-02-16T03:09:37;6.75;;;3.55;;
53207;SDS011;39093;52.788;6.940;2024-02-16T03:12:04;10.95;;;3.72;;
53207;SDS011;39093;52.788;6.940;2024-02-16T03:14:31;6.85;;;3.47;;
53207;SDS011;39093;52.788;6.940;2024-02-16T03:16:58;8.15;;;3.97;;
53207;SDS011;39093;52.788;6.940;2024-02-16T03:19:25;6.43;;;3.60;;
53207;SDS011;39093;52.788;6.940;2024-02-16T03:21:52;8.40;;;4.38;;
53207;SDS011;39093;52.788;6.940;2024-02-16T03:24:19;8.73;;;3.58;;
53207;SDS011;39093;52.788;6.940;2024-02-16T03:26:47;7.78;;;3.53;;
53207;SDS011;39093;52.788;6.940;2024-02-16T03:29:15;10.23;;;4.03;;
53207;SDS011;39093;52.788;6.940;2024-02-16T03:31:42;9.60;;;4.30;;
53207;SDS011;39093;52.788;6.940;2024-02-16T03:34:09;8.95;;;4.30;;
53207;SDS011;39093;52.788;6.940;2024-02-16T03:36:36;7.55;;;4.07;;
53207;SDS011;39093;52.788;6.940;2024-02-16T03:39:03;11.38;;;3.70;;
53207;SDS011;39093;52.788;6.940;2024-02-16T03:41:30;9.73;;;4.20;;
53207;SDS011;39093;52.788;6.940;2024-02-16T03:43:57;13.95;;;4.40;;
53207;SDS011;39093;52.788;6.940;2024-02-16T03:46:24;8.25;;;4.30;;
53207;SDS011;39093;52.788;6.940;2024-02-16T03:48:52;6.13;;;4.00;;
53207;SDS011;39093;52.788;6.940;2024-02-16T03:51:19;5.90;;;3.50;;
53207;SDS011;39093;52.788;6.940;2024-02-16T03:53:46;7.18;;;3.47;;
53207;SDS011;39093;52.788;6.940;2024-02-16T03:56:18;12.25;;;3.95;;
53207;SDS011;39093;52.788;6.940;2024-02-16T03:58:45;7.50;;;3.90;;
53207;SDS011;39093;52.788;6.940;2024-02-16T04:01:12;7.45;;;3.40;;
53207;SDS011;39093;52.788;6.940;2024-02-16T04:03:39;8.20;;;3.60;;
53207;SDS011;39093;52.788;6.940;2024-02-16T04:06:07;7.30;;;3.55;;
53207;SDS011;39093;52.788;6.940;2024-02-16T04:08:34;5.53;;;3.28;;
53207;SDS011;39093;52.788;6.940;2024-02-16T04:11:01;9.02;;;3.55;;
53207;SDS011;39093;52.788;6.940;2024-02-16T04:13:31;7.35;;;3.53;;
53207;SDS011;39093;52.788;6.940;2024-02-16T04:15:59;7.65;;;3.90;;
53207;SDS011;39093;52.788;6.940;2024-02-16T04:18:26;6.07;;;2.85;;
53207;SDS011;39093;52.788;6.940;2024-02-16T04:20:53;9.60;;;3.60;;
53207;SDS011;39093;52.788;6.940;2024-02-16T04:23:20;5.85;;;3.10;;
53207;SDS011;39093;52.788;6.940;2024-02-16T04:25:47;7.45;;;3.38;;
53207;SDS011;39093;52.788;6.940;2024-02-16T04:28:14;5.40;;;2.92;;
53207;SDS011;39093;52.788;6.940;2024-02-16T04:30:41;7.07;;;3.22;;
53207;SDS011;39093;52.788;6.940;2024-02-16T04:33:08;9.35;;;3.42;;
53207;SDS011;39093;52.788;6.940;2024-02-16T04:35:36;5.20;;;3.10;;
53207;SDS011;39093;52.788;6.940;2024-02-16T04:38:03;12.15;;;3.25;;
53207;SDS011;39093;52.788;6.940;2024-02-16T04:40:32;6.72;;;2.92;;
53207;SDS011;39093;52.788;6.940;2024-02-16T04:43:02;6.93;;;3.20;;
53207;SDS011;39093;52.788;6.940;2024-02-16T04:45:30;12.32;;;3.13;;
53207;SDS011;39093;52.788;6.940;2024-02-16T04:47:57;8.30;;;3.10;;
53207;SDS011;39093;52.788;6.940;2024-02-16T04:50:25;4.90;;;3.00;;
53207;SDS011;39093;52.788;6.940;2024-02-16T04:52:53;6.35;;;2.90;;
53207;SDS011;39093;52.788;6.940;2024-02-16T04:55:20;8.90;;;3.40;;
53207;SDS011;39093;52.788;6.940;2024-02-16T04:57:47;7.15;;;3.60;;
53207;SDS011;39093;52.788;6.940;2024-02-16T05:00:14;8.18;;;3.50;;
53207;SDS011;39093;52.788;6.940;2024-02-16T05:02:41;8.27;;;3.50;;
53207;SDS011;39093;52.788;6.940;2024-02-16T05:05:08;4.43;;;2.92;;
53207;SDS011;39093;52.788;6.940;2024-02-16T05:07:35;7.22;;;3.33;;
53207;SDS011;39093;52.788;6.940;2024-02-16T05:10:03;7.88;;;3.53;;
53207;SDS011;39093;52.788;6.940;2024-02-16T05:12:34;9.07;;;3.53;;
53207;SDS011;39093;52.788;6.940;2024-02-16T05:15:01;12.07;;;3.53;;
53207;SDS011;39093;52.788;6.940;2024-02-16T05:17:30;8.30;;;3.60;;
53207;SDS011;39093;52.788;6.940;2024-02-16T05:19:57;9.75;;;3.90;;
53207;SDS011;39093;52.788;6.940;2024-02-16T05:22:25;6.55;;;4.00;;
53207;SDS011;39093;52.788;6.940;2024-02-16T05:24:52;5.72;;;3.63;;
53207;SDS011;39093;52.788;6.940;2024-02-16T05:27:19;10.88;;;3.75;;
53207;SDS011;39093;52.788;6.940;2024-02-16T05:29:46;7.30;;;3.25;;
53207;SDS011;39093;52.788;6.940;2024-02-16T05:32:14;7.80;;;3.72;;
53207;SDS011;39093;52.788;6.940;2024-02-16T05:34:41;8.63;;;3.63;;
53207;SDS011;39093;52.788;6.940;2024-02-16T05:37:08;7.75;;;3.75;;
53207;SDS011;39093;52.788;6.940;2024-02-16T05:39:36;6.40;;;3.55;;
53207;SDS011;39093;52.788;6.940;2024-02-16T05:42:20;13.30;;;3.58;;
53207;SDS011;39093;52.788;6.940;2024-02-16T05:44:50;7.32;;;3.63;;
53207;SDS011;39093;52.788;6.940;2024-02-16T05:47:17;7.97;;;3.75;;
53207;SDS011;39093;52.788;6.940;2024-02-16T05:49:45;7.78;;;3.50;;
53207;SDS011;39093;52.788;6.940;2024-02-16T05:52:13;9.32;;;3.78;;
53207;SDS011;39093;52.788;6.940;2024-02-16T05:54:47;7.82;;;3.28;;
53207;SDS011;39093;52.788;6.940;2024-02-16T05:57:15;10.60;;;3.60;;
53207;SDS011;39093;52.788;6.940;2024-02-16T05:59:43;9.40;;;3.42;;
53207;SDS011;39093;52.788;6.940;2024-02-16T06:02:13;7.10;;;3.70;;
53207;SDS011;39093;52.788;6.940;2024-02-16T06:04:41;11.98;;;3.75;;
53207;SDS011;39093;52.788;6.940;2024-02-16T06:07:08;11.32;;;3.45;;
53207;SDS011;39093;52.788;6.940;2024-02-16T06:09:35;6.18;;;3.30;;
53207;SDS011;39093;52.788;6.940;2024-02-16T06:12:04;8.40;;;3.40;;
53207;SDS011;39093;52.788;6.940;2024-02-16T06:14:33;6.10;;;3.20;;
53207;SDS011;39093;52.788;6.940;2024-02-16T06:17:00;7.07;;;3.63;;
53207;SDS011;39093;52.788;6.940;2024-02-16T06:19:28;5.65;;;3.38;;
53207;SDS011;39093;52.788;6.940;2024-02-16T06:21:55;7.63;;;3.25;;
53207;SDS011;39093;52.788;6.940;2024-02-16T06:24:22;7.75;;;3.78;;
53207;SDS011;39093;52.788;6.940;2024-02-16T06:26:50;5.97;;;3.53;;
53207;SDS011;39093;52.788;6.940;2024-02-16T06:29:22;6.20;;;3.28;;
53207;SDS011;39093;52.788;6.940;2024-02-16T06:31:49;8.73;;;3.78;;
53207;SDS011;39093;52.788;6.940;2024-02-16T06:34:17;5.28;;;2.92;;
53207;SDS011;39093;52.788;6.940;2024-02-16T06:36:45;6.75;;;3.13;;
53207;SDS011;39093;52.788;6.940;2024-02-16T06:39:12;9.00;;;3.00;;
53207;SDS011;39093;52.788;6.940;2024-02-16T06:41:44;4.97;;;2.80;;
53207;SDS011;39093;52.788;6.940;2024-02-16T06:44:16;9.00;;;3.43;;
53207;SDS011;39093;52.788;6.940;2024-02-16T06:46:48;8.55;;;3.60;;
53207;SDS011;39093;52.788;6.940;2024-02-16T06:49:15;8.05;;;2.80;;
53207;SDS011;39093;52.788;6.940;2024-02-16T06:51:42;6.20;;;3.30;;
53207;SDS011;39093;52.788;6.940;2024-02-16T06:54:13;5.53;;;3.13;;
53207;SDS011;39093;52.788;6.940;2024-02-16T06:56:45;8.70;;;3.87;;
53207;SDS011;39093;52.788;6.940;2024-02-16T06:59:15;7.03;;;3.40;;
53207;SDS011;39093;52.788;6.940;2024-02-16T07:01:42;7.15;;;3.08;;
53207;SDS011;39093;52.788;6.940;2024-02-16T07:04:09;6.85;;;3.05;;
53207;SDS011;39093;52.788;6.940;2024-02-16T07:06:36;8.63;;;3.25;;
53207;SDS011;39093;52.788;6.940;2024-02-16T07:09:03;6.97;;;3.53;;
53207;SDS011;39093;52.788;6.940;2024-02-16T07:11:30;6.20;;;3.08;;
53207;SDS011;39093;52.788;6.940;2024-02-16T07:13:57;4.22;;;2.60;;
53207;SDS011;39093;52.788;6.940;2024-02-16T07:16:25;9.20;;;3.45;;
53207;SDS011;39093;52.788;6.940;2024-02-16T07:18:53;8.90;;;3.40;;
53207;SDS011;39093;52.788;6.940;2024-02-16T07:21:20;8.43;;;3.50;;
53207;SDS011;39093;52.788;6.940;2024-02-16T07:23:48;5.45;;;3.38;;
53207;SDS011;39093;52.788;6.940;2024-02-16T07:26:15;6.43;;;2.97;;
53207;SDS011;39093;52.788;6.940;2024-02-16T07:28:44;7.85;;;3.35;;
53207;SDS011;39093;52.788;6.940;2024-02-16T07:31:11;9.38;;;3.50;;
53207;SDS011;39093;52.788;6.940;2024-02-16T07:33:38;6.43;;;3.00;;
53207;SDS011;39093;52.788;6.940;2024-02-16T07:36:06;6.10;;;3.13;;
53207;SDS011;39093;52.788;6.940;2024-02-16T07:38:33;10.23;;;3.53;;
53207;SDS011;39093;52.788;6.940;2024-02-16T07:41:00;7.88;;;3.38;;
53207;SDS011;39093;52.788;6.940;2024-02-16T07:43:31;8.30;;;3.10;;
53207;SDS011;39093;52.788;6.940;2024-02-16T07:45:58;9.07;;;3.85;;
53207;SDS011;39093;52.788;6.940;2024-02-16T07:48:25;9.10;;;3.40;;
53207;SDS011;39093;52.788;6.940;2024-02-16T07:50:53;10.63;;;3.67;;
53207;SDS011;39093;52.788;6.940;2024-02-16T07:53:20;8.02;;;3.20;;
53207;SDS011;39093;52.788;6.940;2024-02-16T07:55:47;9.07;;;4.10;;
53207;SDS011;39093;52.788;6.940;2024-02-16T07:58:14;10.07;;;4.00;;
53207;SDS011;39093;52.788;6.940;2024-02-16T08:00:41;6.40;;;3.40;;
53207;SDS011;39093;52.788;6.940;2024-02-16T08:03:08;6.68;;;3.40;;
53207;SDS011;39093;52.788;6.940;2024-02-16T08:05:35;8.38;;;3.63;;
53207;SDS011;39093;52.788;6.940;2024-02-16T08:08:02;5.05;;;3.45;;
53207;SDS011;39093;52.788;6.940;2024-02-16T08:10:30;7.28;;;3.80;;
53207;SDS011;39093;52.788;6.940;2024-02-16T08:12:57;9.63;;;3.78;;
53207;SDS011;39093;52.788;6.940;2024-02-16T08:15:25;6.07;;;3.65;;
53207;SDS011;39093;52.788;6.940;2024-02-16T08:17:52;6.25;;;3.35;;
53207;SDS011;39093;52.788;6.940;2024-02-16T08:20:20;8.35;;;3.13;;
53207;SDS011;39093;52.788;6.940;2024-02-16T08:22:47;8.45;;;3.45;;
53207;SDS011;39093;52.788;6.940;2024-02-16T08:25:15;6.82;;;3.33;;
53207;SDS011;39093;52.788;6.940;2024-02-16T08:27:41;4.65;;;3.10;;
53207;SDS011;39093;52.788;6.940;2024-02-16T08:30:09;5.47;;;3.05;;
53207;SDS011;39093;52.788;6.940;2024-02-16T08:32:38;6.00;;;3.63;;
53207;SDS011;39093;52.788;6.940;2024-02-16T08:35:05;7.63;;;3.90;;
53207;SDS011;39093;52.788;6.940;2024-02-16T08:37:33;7.97;;;3.53;;
53207;SDS011;39093;52.788;6.940;2024-02-16T08:40:00;7.20;;;2.90;;
53207;SDS011;39093;52.788;6.940;2024-02-16T08:42:28;7.90;;;3.47;;
53207;SDS011;39093;52.788;6.940;2024-02-16T08:44:55;7.95;;;3.90;;
53207;SDS011;39093;52.788;6.940;2024-02-16T08:47:22;9.85;;;3.55;;
53207;SDS011;39093;52.788;6.940;2024-02-16T08:49:49;7.60;;;3.05;;
53207;SDS011;39093;52.788;6.940;2024-02-16T08:52:16;7.35;;;3.78;;
53207;SDS011;39093;52.788;6.940;2024-02-16T08:54:43;9.07;;;3.03;;
53207;SDS011;39093;52.788;6.940;2024-02-16T08:57:10;8.45;;;3.53;;
53207;SDS011;39093;52.788;6.940;2024-02-16T08:59:38;7.00;;;3.50;;
53207;SDS011;39093;52.788;6.940;2024-02-16T09:02:05;7.97;;;3.22;;
53207;SDS011;39093;52.788;6.940;2024-02-16T09:04:33;6.57;;;2.55;;
53207;SDS011;39093;52.788;6.940;2024-02-16T09:07:00;8.10;;;3.33;;
53207;SDS011;39093;52.788;6.940;2024-02-16T09:09:27;5.85;;;3.30;;
53207;SDS011;39093;52.788;6.940;2024-02-16T09:11:55;7.35;;;3.25;;
53207;SDS011;39093;52.788;6.940;2024-02-16T09:14:22;8.75;;;3.40;;
53207;SDS011;39093;52.788;6.940;2024-02-16T09:16:49;9.48;;;3.53;;
53207;SDS011;39093;52.788;6.940;2024-02-16T09:19:19;5.47;;;2.88;;
53207;SDS011;39093;52.788;6.940;2024-02-16T09:21:48;9.15;;;4.00;;
53207;SDS011;39093;52.788;6.940;2024-02-16T09:24:17;6.60;;;3.58;;
53207;SDS011;39093;52.788;6.940;2024-02-16T09:26:45;9.35;;;4.18;;
53207;SDS011;39093;52.788;6.940;2024-02-16T09:29:15;4.22;;;3.17;;
53207;SDS011;39093;52.788;6.940;2024-02-16T09:31:44;6.78;;;3.42;;
53207;SDS011;39093;52.788;6.940;2024-02-16T09:34:14;7.15;;;3.28;;
53207;SDS011;39093;52.788;6.940;2024-02-16T09:36:42;10.65;;;3.92;;
53207;SDS011;39093;52.788;6.940;2024-02-16T09:39:09;8.75;;;3.70;;
53207;SDS011;39093;52.788;6.940;2024-02-16T09:41:36;12.32;;;4.13;;
53207;SDS011;39093;52.788;6.940;2024-02-16T09:44:08;7.18;;;3.80;;
53207;SDS011;39093;52.788;6.940;2024-02-16T09:46:36;8.57;;;3.42;;
53207;SDS011;39093;52.788;6.940;2024-02-16T09:49:04;11.98;;;3.60;;
53207;SDS011;39093;52.788;6.940;2024-02-16T09:51:31;5.90;;;3.85;;
53207;SDS011;39093;52.788;6.940;2024-02-16T09:54:03;9.43;;;4.03;;
53207;SDS011;39093;52.788;6.940;2024-02-16T09:56:30;8.38;;;3.70;;
53207;SDS011;39093;52.788;6.940;2024-02-16T09:58:57;9.00;;;3.55;;
53207;SDS011;39093;52.788;6.940;2024-02-16T10:01:25;8.27;;;3.78;;
53207;SDS011;39093;52.788;6.940;2024-02-16T10:03:52;9.23;;;3.95;;
53207;SDS011;39093;52.788;6.940;2024-02-16T10:06:19;7.88;;;4.10;;
53207;SDS011;39093;52.788;6.940;2024-02-16T10:11:19;6.70;;;3.72;;
53207;SDS011;39093;52.788;6.940;2024-02-16T10:13:54;9.88;;;4.28;;
53207;SDS011;39093;52.788;6.940;2024-02-16T10:16:25;13.18;;;4.63;;
53207;SDS011;39093;52.788;6.940;2024-02-16T10:19:07;9.52;;;4.70;;
53207;SDS011;39093;52.788;6.940;2024-02-16T10:21:41;8.30;;;4.25;;
53207;SDS011;39093;52.788;6.940;2024-02-16T10:24:09;12.68;;;4.32;;
53207;SDS011;39093;52.788;6.940;2024-02-16T10:26:37;6.88;;;3.70;;
53207;SDS011;39093;52.788;6.940;2024-02-16T10:29:07;8.57;;;4.38;;
53207;SDS011;39093;52.788;6.940;2024-02-16T10:31:37;10.70;;;5.75;;
53207;SDS011;39093;52.788;6.940;2024-02-16T10:34:04;9.70;;;4.90;;
53207;SDS011;39093;52.788;6.940;2024-02-16T10:36:34;7.68;;;4.57;;
53207;SDS011;39093;52.788;6.940;2024-02-16T10:39:03;8.23;;;3.88;;
53207;SDS011;39093;52.788;6.940;2024-02-16T10:41:36;7.93;;;4.78;;
53207;SDS011;39093;52.788;6.940;2024-02-16T10:44:06;6.80;;;4.50;;
53207;SDS011;39093;52.788;6.940;2024-02-16T10:46:34;8.07;;;4.68;;
53207;SDS011;39093;52.788;6.940;2024-02-16T10:49:01;10.00;;;4.93;;
53207;SDS011;39093;52.788;6.940;2024-02-16T10:54:14;9.27;;;4.20;;
53207;SDS011;39093;52.788;6.940;2024-02-16T10:56:43;7.22;;;4.22;;
53207;SDS011;39093;52.788;6.940;2024-02-16T10:59:11;12.95;;;4.45;;
53207;SDS011;39093;52.788;6.940;2024-02-16T11:01:38;7.90;;;4.80;;
53207;SDS011;39093;52.788;6.940;2024-02-16T11:04:08;10.43;;;4.85;;
53207;SDS011;39093;52.788;6.940;2024-02-16T11:06:53;7.00;;;4.55;;
53207;SDS011;39093;52.788;6.940;2024-02-16T11:12:07;9.55;;;5.13;;
53207;SDS011;39093;52.788;6.940;2024-02-16T11:14:42;13.23;;;4.60;;
53207;SDS011;39093;52.788;6.940;2024-02-16T11:17:10;10.43;;;4.93;;
53207;SDS011;39093;52.788;6.940;2024-02-16T11:19:45;12.45;;;6.20;;
53207;SDS011;39093;52.788;6.940;2024-02-16T11:22:17;7.50;;;4.80;;
53207;SDS011;39093;52.788;6.940;2024-02-16T11:24:49;13.68;;;5.90;;
53207;SDS011;39093;52.788;6.940;2024-02-16T11:27:22;13.35;;;6.05;;
53207;SDS011;39093;52.788;6.940;2024-02-16T11:29:50;11.80;;;5.82;;
53207;SDS011;39093;52.788;6.940;2024-02-16T11:32:20;10.27;;;5.30;;
53207;SDS011;39093;52.788;6.940;2024-02-16T11:34:47;8.15;;;5.75;;
53207;SDS011;39093;52.788;6.940;2024-02-16T11:37:15;12.18;;;5.93;;
53207;SDS011;39093;52.788;6.940;2024-02-16T11:39:43;8.63;;;5.60;;
53207;SDS011;39093;52.788;6.940;2024-02-16T11:42:13;14.25;;;6.22;;
53207;SDS011;39093;52.788;6.940;2024-02-16T11:44:54;10.48;;;5.97;;
53207;SDS011;39093;52.788;6.940;2024-02-16T11:47:23;9.82;;;5.93;;
53207;SDS011;39093;52.788;6.940;2024-02-16T11:50:04;12.52;;;6.30;;
53207;SDS011;39093;52.788;6.940;2024-02-16T11:52:33;13.52;;;6.60;;
53207;SDS011;39093;52.788;6.940;2024-02-16T11:55:01;12.18;;;7.13;;
53207;SDS011;39093;52.788;6.940;2024-02-16T11:57:31;9.52;;;6.85;;
53207;SDS011;39093;52.788;6.940;2024-02-16T11:59:58;12.93;;;7.65;;
53207;SDS011;39093;52.788;6.940;2024-02-16T12:02:26;15.63;;;7.70;;
53207;SDS011;39093;52.788;6.940;2024-02-16T12:04:59;16.45;;;8.95;;
53207;SDS011;39093;52.788;6.940;2024-02-16T12:07:30;13.18;;;8.75;;
53207;SDS011;39093;52.788;6.940;2024-02-16T12:09:58;18.00;;;10.30;;
53207;SDS011;39093;52.788;6.940;2024-02-16T12:12:26;14.07;;;10.35;;
53207;SDS011;39093;52.788;6.940;2024-02-16T12:14:54;13.27;;;11.18;;
53207;SDS011;39093;52.788;6.940;2024-02-16T12:17:22;15.45;;;12.10;;
53207;SDS011;39093;52.788;6.940;2024-02-16T12:19:50;16.70;;;13.02;;
53207;SDS011;39093;52.788;6.940;2024-02-16T12:22:18;21.15;;;14.45;;
53207;SDS011;39093;52.788;6.940;2024-02-16T12:24:46;20.63;;;13.98;;
53207;SDS011;39093;52.788;6.940;2024-02-16T12:27:14;18.25;;;13.85;;
53207;SDS011;39093;52.788;6.940;2024-02-16T12:29:41;22.70;;;15.25;;
53207;SDS011;39093;52.788;6.940;2024-02-16T12:32:08;22.25;;;15.70;;
53207;SDS011;39093;52.788;6.940;2024-02-16T12:34:38;18.15;;;14.88;;
53207;SDS011;39093;52.788;6.940;2024-02-16T12:37:06;25.42;;;15.93;;
53207;SDS011;39093;52.788;6.940;2024-02-16T12:39:34;21.52;;;15.68;;
53207;SDS011;39093;52.788;6.940;2024-02-16T12:42:01;21.17;;;15.20;;
53207;SDS011;39093;52.788;6.940;2024-02-16T12:44:28;22.13;;;16.77;;
53207;SDS011;39093;52.788;6.940;2024-02-16T12:46:56;23.55;;;17.27;;
53207;SDS011;39093;52.788;6.940;2024-02-16T12:49:23;24.13;;;16.58;;
53207;SDS011;39093;52.788;6.940;2024-02-16T12:51:52;21.08;;;16.90;;
53207;SDS011;39093;52.788;6.940;2024-02-16T12:54:20;23.63;;;17.35;;
53207;SDS011;39093;52.788;6.940;2024-02-16T12:56:49;21.42;;;15.52;;
53207;SDS011;39093;52.788;6.940;2024-02-16T12:59:16;23.20;;;16.48;;
53207;SDS011;39093;52.788;6.940;2024-02-16T13:01:43;21.85;;;15.32;;
53207;SDS011;39093;52.788;6.940;2024-02-16T13:04:11;21.33;;;15.43;;
53207;SDS011;39093;52.788;6.940;2024-02-16T13:06:39;20.13;;;14.98;;
53207;SDS011;39093;52.788;6.940;2024-02-16T13:09:06;24.10;;;14.55;;
53207;SDS011;39093;52.788;6.940;2024-02-16T13:11:35;19.30;;;13.95;;
53207;SDS011;39093;52.788;6.940;2024-02-16T13:14:02;19.10;;;14.18;;
53207;SDS011;39093;52.788;6.940;2024-02-16T13:16:34;20.77;;;14.82;;
53207;SDS011;39093;52.788;6.940;2024-02-16T13:21:30;25.83;;;14.38;;
53207;SDS011;39093;52.788;6.940;2024-02-16T13:23:57;19.70;;;13.15;;
53207;SDS011;39093;52.788;6.940;2024-02-16T13:26:28;15.00;;;10.95;;
53207;SDS011;39093;52.788;6.940;2024-02-16T13:28:55;20.80;;;10.52;;
53207;SDS011;39093;52.788;6.940;2024-02-16T13:31:22;12.52;;;9.25;;
53207;SDS011;39093;52.788;6.940;2024-02-16T13:33:50;13.95;;;9.63;;
53207;SDS011;39093;52.788;6.940;2024-02-16T13:36:19;13.10;;;8.65;;
53207;SDS011;39093;52.788;6.940;2024-02-16T13:38:47;12.20;;;7.63;;
53207;SDS011;39093;52.788;6.940;2024-02-16T13:41:14;12.80;;;7.13;;
53207;SDS011;39093;52.788;6.940;2024-02-16T13:43:45;10.60;;;7.50;;
53207;SDS011;39093;52.788;6.940;2024-02-16T13:46:13;15.20;;;9.20;;
53207;SDS011;39093;52.788;6.940;2024-02-16T13:48:41;10.63;;;7.28;;
53207;SDS011;39093;52.788;6.940;2024-02-16T13:51:08;11.73;;;7.30;;
53207;SDS011;39093;52.788;6.940;2024-02-16T13:53:35;12.98;;;7.53;;
53207;SDS011;39093;52.788;6.940;2024-02-16T13:56:03;8.75;;;6.28;;
53207;SDS011;39093;52.788;6.940;2024-02-16T13:58:32;12.55;;;7.22;;
53207;SDS011;39093;52.788;6.940;2024-02-16T14:01:01;17.63;;;7.53;;
53207;SDS011;39093;52.788;6.940;2024-02-16T14:03:30;12.27;;;7.55;;
53207;SDS011;39093;52.788;6.940;2024-02-16T14:05:58;9.77;;;7.15;;
53207;SDS011;39093;52.788;6.940;2024-02-16T14:08:26;13.10;;;6.90;;
53207;SDS011;39093;52.788;6.940;2024-02-16T14:10:53;10.05;;;6.90;;
53207;SDS011;39093;52.788;6.940;2024-02-16T14:13:20;10.15;;;5.88;;
53207;SDS011;39093;52.788;6.940;2024-02-16T14:15:48;6.68;;;5.65;;
53207;SDS011;39093;52.788;6.940;2024-02-16T14:18:15;8.52;;;5.38;;
53207;SDS011;39093;52.788;6.940;2024-02-16T14:20:55;6.70;;;5.30;;
53207;SDS011;39093;52.788;6.940;2024-02-16T14:23:22;7.50;;;5.38;;
53207;SDS011;39093;52.788;6.940;2024-02-16T14:25:49;7.00;;;5.15;;
53207;SDS011;39093;52.788;6.940;2024-02-16T14:28:16;8.35;;;5.03;;
53207;SDS011;39093;52.788;6.940;2024-02-16T14:30:43;5.80;;;5.15;;
53207;SDS011;39093;52.788;6.940;2024-02-16T14:33:10;7.05;;;5.40;;
53207;SDS011;39093;52.788;6.940;2024-02-16T14:35:38;7.10;;;5.55;;
53207;SDS011;39093;52.788;6.940;2024-02-16T14:38:05;7.65;;;6.05;;
53207;SDS011;39093;52.788;6.940;2024-02-16T14:40:32;9.68;;;5.38;;
53207;SDS011;39093;52.788;6.940;2024-02-16T14:43:00;8.38;;;5.15;;
53207;SDS011;39093;52.788;6.940;2024-02-16T14:45:27;8.43;;;5.53;;
53207;SDS011;39093;52.788;6.940;2024-02-16T14:47:55;6.25;;;4.90;;
53207;SDS011;39093;52.788;6.940;2024-02-16T14:50:22;7.13;;;5.15;;
53207;SDS011;39093;52.788;6.940;2024-02-16T14:52:50;6.95;;;4.65;;
53207;SDS011;39093;52.788;6.940;2024-02-16T14:55:17;3.90;;;3.15;;
53207;SDS011;39093;52.788;6.940;2024-02-16T14:57:44;4.47;;;3.38;;